sensor_id;sensor_type;location;lat;lon;timestamp;pressure;altitude;pressure_sealevel;temperature
22269;BMP280;11303;50.772;19.670;2024-01-15T00:01:03;96978.88;;;-0.78
22269;BMP280;11303;50.772;19.670;2024-01-15T00:03:05;96983.69;;;-0.77
22269;BMP280;11303;50.772;19.670;2024-01-15T00:05:07;96973.47;;;-0.77
22269;BMP280;11303;50.772;19.670;2024-01-15T00:07:09;96970.94;;;-0.77
22269;BMP280;11303;50.772;19.670;2024-01-15T00:09:11;96971.66;;;-0.76
22269;BMP280;11303;50.772;19.670;2024-01-15T00:11:12;96975.44;;;-0.74
22269;BMP280;11303;50.772;19.670;2024-01-15T00:13:14;96964.31;;;-0.69
22269;BMP280;11303;50.772;19.670;2024-01-15T00:15:15;96948.56;;;-0.71
22269;BMP280;11303;50.772;19.670;2024-01-15T00:17:17;96924.25;;;-0.68
22269;BMP280;11303;50.772;19.670;2024-01-15T00:19:19;96919.91;;;-0.68
22269;BMP280;11303;50.772;19.670;2024-01-15T00:21:20;96907.00;;;-0.72
22269;BMP280;11303;50.772;19.670;2024-01-15T00:23:22;96912.25;;;-0.77
22269;BMP280;11303;50.772;19.670;2024-01-15T00:25:24;96917.22;;;-0.80
22269;BMP280;11303;50.772;19.670;2024-01-15T00:27:25;96920.22;;;-0.87
22269;BMP280;11303;50.772;19.670;2024-01-15T00:29:27;96926.50;;;-0.93
22269;BMP280;11303;50.772;19.670;2024-01-15T00:31:29;96931.34;;;-1.00
22269;BMP280;11303;50.772;19.670;2024-01-15T00:33:31;96920.81;;;-1.08
22269;BMP280;11303;50.772;19.670;2024-01-15T00:35:33;96926.09;;;-1.13
22269;BMP280;11303;50.772;19.670;2024-01-15T00:37:35;96913.16;;;-1.16
22269;BMP280;11303;50.772;19.670;2024-01-15T00:39:36;96911.81;;;-1.22
22269;BMP280;11303;50.772;19.670;2024-01-15T00:41:38;96904.75;;;-1.26
22269;BMP280;11303;50.772;19.670;2024-01-15T00:43:39;96891.44;;;-1.31
22269;BMP280;11303;50.772;19.670;2024-01-15T00:45:41;96879.72;;;-1.32
22269;BMP280;11303;50.772;19.670;2024-01-15T00:47:43;96877.63;;;-1.30
22269;BMP280;11303;50.772;19.670;2024-01-15T00:49:45;96868.63;;;-1.28
22269;BMP280;11303;50.772;19.670;2024-01-15T00:51:47;96872.09;;;-1.23
22269;BMP280;11303;50.772;19.670;2024-01-15T00:53:48;96875.09;;;-1.21
22269;BMP280;11303;50.772;19.670;2024-01-15T00:55:50;96870.28;;;-1.23
22269;BMP280;11303;50.772;19.670;2024-01-15T00:57:52;96856.03;;;-1.24
22269;BMP280;11303;50.772;19.670;2024-01-15T00:59:53;96873.88;;;-1.24
22269;BMP280;11303;50.772;19.670;2024-01-15T01:01:55;96871.03;;;-1.22
22269;BMP280;11303;50.772;19.670;2024-01-15T01:03:57;96869.97;;;-1.21
22269;BMP280;11303;50.772;19.670;2024-01-15T01:05:59;96850.31;;;-1.21
22269;BMP280;11303;50.772;19.670;2024-01-15T01:08:00;96855.13;;;-1.19
22269;BMP280;11303;50.772;19.670;2024-01-15T01:10:02;96854.38;;;-1.20
22269;BMP280;11303;50.772;19.670;2024-01-15T01:12:04;96843.28;;;-1.15
22269;BMP280;11303;50.772;19.670;2024-01-15T01:14:06;96855.88;;;-1.10
22269;BMP280;11303;50.772;19.670;2024-01-15T01:16:08;96857.38;;;-1.09
22269;BMP280;11303;50.772;19.670;2024-01-15T01:18:09;96856.34;;;-1.08
22269;BMP280;11303;50.772;19.670;2024-01-15T01:20:11;96859.94;;;-1.09
22269;BMP280;11303;50.772;19.670;2024-01-15T01:22:16;96850.47;;;-1.09
22269;BMP280;11303;50.772;19.670;2024-01-15T01:24:17;96850.47;;;-1.09
22269;BMP280;11303;50.772;19.670;2024-01-15T01:26:19;96841.78;;;-1.08
22269;BMP280;11303;50.772;19.670;2024-01-15T01:28:20;96841.78;;;-1.08
22269;BMP280;11303;50.772;19.670;2024-01-15T01:30:22;96839.84;;;-1.11
22269;BMP280;11303;50.772;19.670;2024-01-15T01:32:24;96840.13;;;-1.12
22269;BMP280;11303;50.772;19.670;2024-01-15T01:34:25;96842.25;;;-1.14
22269;BMP280;11303;50.772;19.670;2024-01-15T01:36:28;96839.69;;;-1.14
22269;BMP280;11303;50.772;19.670;2024-01-15T01:38:29;96839.41;;;-1.13
22269;BMP280;11303;50.772;19.670;2024-01-15T01:40:31;96846.88;;;-1.08
22269;BMP280;11303;50.772;19.670;2024-01-15T01:42:32;96845.84;;;-1.06
22269;BMP280;11303;50.772;19.670;2024-01-15T01:44:34;96842.22;;;-1.05
22269;BMP280;11303;50.772;19.670;2024-01-15T01:46:36;96837.13;;;-1.05
22269;BMP280;11303;50.772;19.670;2024-01-15T01:48:42;96834.13;;;-1.08
22269;BMP280;11303;50.772;19.670;2024-01-15T01:50:44;96835.19;;;-1.09
22269;BMP280;11303;50.772;19.670;2024-01-15T01:52:45;96831.44;;;-1.11
22269;BMP280;11303;50.772;19.670;2024-01-15T01:54:47;96817.78;;;-1.15
22269;BMP280;11303;50.772;19.670;2024-01-15T01:56:50;96814.34;;;-1.19
22269;BMP280;11303;50.772;19.670;2024-01-15T01:58:52;96824.84;;;-1.21
22269;BMP280;11303;50.772;19.670;2024-01-15T02:00:54;96823.34;;;-1.22
22269;BMP280;11303;50.772;19.670;2024-01-15T02:02:56;96810.16;;;-1.24
22269;BMP280;11303;50.772;19.670;2024-01-15T02:04:57;96811.94;;;-1.24
22269;BMP280;11303;50.772;19.670;2024-01-15T02:07:00;96800.25;;;-1.26
22269;BMP280;11303;50.772;19.670;2024-01-15T02:09:03;96805.34;;;-1.26
22269;BMP280;11303;50.772;19.670;2024-01-15T02:11:04;96796.66;;;-1.24
22269;BMP280;11303;50.772;19.670;2024-01-15T02:13:06;96794.84;;;-1.24
22269;BMP280;11303;50.772;19.670;2024-01-15T02:15:07;96798.59;;;-1.21
22269;BMP280;11303;50.772;19.670;2024-01-15T02:17:09;96789.91;;;-1.20
22269;BMP280;11303;50.772;19.670;2024-01-15T02:19:17;96800.84;;;-1.20
22269;BMP280;11303;50.772;19.670;2024-01-15T02:21:19;96807.75;;;-1.20
22269;BMP280;11303;50.772;19.670;2024-01-15T02:23:21;96788.09;;;-1.20
22269;BMP280;11303;50.772;19.670;2024-01-15T02:25:22;96797.25;;;-1.19
22269;BMP280;11303;50.772;19.670;2024-01-15T02:27:24;96787.06;;;-1.19
22269;BMP280;11303;50.772;19.670;2024-01-15T02:29:26;96778.94;;;-1.21
22269;BMP280;11303;50.772;19.670;2024-01-15T02:31:27;96785.13;;;-1.22
22269;BMP280;11303;50.772;19.670;2024-01-15T02:33:29;96787.81;;;-1.27
22269;BMP280;11303;50.772;19.670;2024-01-15T02:35:31;96788.56;;;-1.27
22269;BMP280;11303;50.772;19.670;2024-01-15T02:37:32;96788.28;;;-1.25
22269;BMP280;11303;50.772;19.670;2024-01-15T02:39:34;96777.78;;;-1.23
22269;BMP280;11303;50.772;19.670;2024-01-15T02:41:36;96773.13;;;-1.21
22269;BMP280;11303;50.772;19.670;2024-01-15T02:43:37;96762.63;;;-1.20
22269;BMP280;11303;50.772;19.670;2024-01-15T02:45:39;96758.13;;;-1.23
22269;BMP280;11303;50.772;19.670;2024-01-15T02:47:41;96751.38;;;-1.28
22269;BMP280;11303;50.772;19.670;2024-01-15T02:49:42;96738.06;;;-1.33
22269;BMP280;11303;50.772;19.670;2024-01-15T02:51:44;96744.78;;;-1.37
22269;BMP280;11303;50.772;19.670;2024-01-15T02:53:46;96741.63;;;-1.43
22269;BMP280;11303;50.772;19.670;2024-01-15T02:55:48;96737.16;;;-1.46
22269;BMP280;11303;50.772;19.670;2024-01-15T02:57:49;96732.34;;;-1.48
22269;BMP280;11303;50.772;19.670;2024-01-15T02:59:51;96730.88;;;-1.49
22269;BMP280;11303;50.772;19.670;2024-01-15T03:01:53;96725.47;;;-1.47
22269;BMP280;11303;50.772;19.670;2024-01-15T03:03:54;96713.03;;;-1.49
22269;BMP280;11303;50.772;19.670;2024-01-15T03:05:57;96711.97;;;-1.48
22269;BMP280;11303;50.772;19.670;2024-01-15T03:07:58;96707.63;;;-1.47
22269;BMP280;11303;50.772;19.670;2024-01-15T03:10:00;96706.88;;;-1.48
22269;BMP280;11303;50.772;19.670;2024-01-15T03:12:02;96708.69;;;-1.48
22269;BMP280;11303;50.772;19.670;2024-01-15T03:14:04;96704.94;;;-1.51
22269;BMP280;11303;50.772;19.670;2024-01-15T03:16:05;96696.53;;;-1.51
22269;BMP280;11303;50.772;19.670;2024-01-15T03:18:07;96703.16;;;-1.50
22269;BMP280;11303;50.772;19.670;2024-01-15T03:20:10;96689.66;;;-1.51
22269;BMP280;11303;50.772;19.670;2024-01-15T03:22:11;96687.41;;;-1.52
22269;BMP280;11303;50.772;19.670;2024-01-15T03:24:13;96690.09;;;-1.49
22269;BMP280;11303;50.772;19.670;2024-01-15T03:26:15;96685.00;;;-1.49
22269;BMP280;11303;50.772;19.670;2024-01-15T03:28:16;96686.34;;;-1.51
22269;BMP280;11303;50.772;19.670;2024-01-15T03:30:18;96685.31;;;-1.50
22269;BMP280;11303;50.772;19.670;2024-01-15T03:32:20;96679.63;;;-1.47
22269;BMP280;11303;50.772;19.670;2024-01-15T03:34:22;96674.66;;;-1.44
22269;BMP280;11303;50.772;19.670;2024-01-15T03:36:23;96680.19;;;-1.41
22269;BMP280;11303;50.772;19.670;2024-01-15T03:38:28;96675.53;;;-1.39
22269;BMP280;11303;50.772;19.670;2024-01-15T03:40:30;96672.38;;;-1.36
22269;BMP280;11303;50.772;19.670;2024-01-15T03:42:31;96678.69;;;-1.34
22269;BMP280;11303;50.772;19.670;2024-01-15T03:44:33;96670.44;;;-1.31
22269;BMP280;11303;50.772;19.670;2024-01-15T03:46:34;96673.72;;;-1.30
22269;BMP280;11303;50.772;19.670;2024-01-15T03:48:36;96652.28;;;-1.29
22269;BMP280;11303;50.772;19.670;2024-01-15T03:50:38;96665.47;;;-1.27
22269;BMP280;11303;50.772;19.670;2024-01-15T03:52:39;96656.34;;;-1.28
22269;BMP280;11303;50.772;19.670;2024-01-15T03:54:41;96654.53;;;-1.28
22269;BMP280;11303;50.772;19.670;2024-01-15T03:56:43;96660.06;;;-1.26
22269;BMP280;11303;50.772;19.670;2024-01-15T03:58:44;96672.06;;;-1.26
22269;BMP280;11303;50.772;19.670;2024-01-15T04:00:46;96644.94;;;-1.22
22269;BMP280;11303;50.772;19.670;2024-01-15T04:02:47;96635.47;;;-1.21
22269;BMP280;11303;50.772;19.670;2024-01-15T04:04:49;96650.47;;;-1.20
22269;BMP280;11303;50.772;19.670;2024-01-15T04:06:51;96641.91;;;-1.24
22269;BMP280;11303;50.772;19.670;2024-01-15T04:08:53;96650.03;;;-1.22
22269;BMP280;11303;50.772;19.670;2024-01-15T04:10:54;96652.25;;;-1.20
22269;BMP280;11303;50.772;19.670;2024-01-15T04:12:56;96646.56;;;-1.17
22269;BMP280;11303;50.772;19.670;2024-01-15T04:14:58;96640.69;;;-1.18
22269;BMP280;11303;50.772;19.670;2024-01-15T04:17:00;96641.00;;;-1.19
22269;BMP280;11303;50.772;19.670;2024-01-15T04:19:01;96637.72;;;-1.20
22269;BMP280;11303;50.772;19.670;2024-01-15T04:21:06;96637.59;;;-1.23
22269;BMP280;11303;50.772;19.670;2024-01-15T04:23:08;96651.38;;;-1.24
22269;BMP280;11303;50.772;19.670;2024-01-15T04:25:09;96648.81;;;-1.24
22269;BMP280;11303;50.772;19.670;2024-01-15T04:27:11;96649.56;;;-1.24
22269;BMP280;11303;50.772;19.670;2024-01-15T04:29:13;96640.13;;;-1.23
22269;BMP280;11303;50.772;19.670;2024-01-15T04:31:24;96649.72;;;-1.20
22269;BMP280;11303;50.772;19.670;2024-01-15T04:33:27;96650.16;;;-1.18
22269;BMP280;11303;50.772;19.670;2024-01-15T04:35:30;96653.13;;;-1.16
22269;BMP280;11303;50.772;19.670;2024-01-15T04:37:32;96636.06;;;-1.16
22269;BMP280;11303;50.772;19.670;2024-01-15T04:39:33;96641.16;;;-1.16
22269;BMP280;11303;50.772;19.670;2024-01-15T04:41:35;96634.97;;;-1.15
22269;BMP280;11303;50.772;19.670;2024-01-15T04:43:36;96640.06;;;-1.15
22269;BMP280;11303;50.772;19.670;2024-01-15T04:45:38;96638.59;;;-1.16
22269;BMP280;11303;50.772;19.670;2024-01-15T04:47:40;96642.94;;;-1.16
22269;BMP280;11303;50.772;19.670;2024-01-15T04:49:41;96647.28;;;-1.17
22269;BMP280;11303;50.772;19.670;2024-01-15T04:51:43;96640.69;;;-1.18
22269;BMP280;11303;50.772;19.670;2024-01-15T04:53:45;96637.09;;;-1.17
22269;BMP280;11303;50.772;19.670;2024-01-15T04:55:46;96638.28;;;-1.14
22269;BMP280;11303;50.772;19.670;2024-01-15T04:57:48;96633.50;;;-1.16
22269;BMP280;11303;50.772;19.670;2024-01-15T04:59:49;96620.75;;;-1.16
22269;BMP280;11303;50.772;19.670;2024-01-15T05:01:51;96634.97;;;-1.15
22269;BMP280;11303;50.772;19.670;2024-01-15T05:03:52;96633.81;;;-1.17
22269;BMP280;11303;50.772;19.670;2024-01-15T05:05:57;96620.31;;;-1.18
22269;BMP280;11303;50.772;19.670;2024-01-15T05:07:59;96629.75;;;-1.18
22269;BMP280;11303;50.772;19.670;2024-01-15T05:10:00;96633.34;;;-1.19
22269;BMP280;11303;50.772;19.670;2024-01-15T05:12:02;96630.38;;;-1.21
22269;BMP280;11303;50.772;19.670;2024-01-15T05:14:04;96623.03;;;-1.23
22269;BMP280;11303;50.772;19.670;2024-01-15T05:16:06;96627.38;;;-1.23
22269;BMP280;11303;50.772;19.670;2024-01-15T05:18:07;96635.78;;;-1.23
22269;BMP280;11303;50.772;19.670;2024-01-15T05:20:10;96623.78;;;-1.22
22269;BMP280;11303;50.772;19.670;2024-01-15T05:22:12;96633.66;;;-1.21
22269;BMP280;11303;50.772;19.670;2024-01-15T05:24:13;96621.22;;;-1.22
22269;BMP280;11303;50.772;19.670;2024-01-15T05:26:15;96633.09;;;-1.27
22269;BMP280;11303;50.772;19.670;2024-01-15T05:28:16;96636.72;;;-1.36
22269;BMP280;11303;50.772;19.670;2024-01-15T05:30:18;96633.44;;;-1.46
22269;BMP280;11303;50.772;19.670;2024-01-15T05:32:20;96628.06;;;-1.53
22269;BMP280;11303;50.772;19.670;2024-01-15T05:34:21;96621.31;;;-1.57
22269;BMP280;11303;50.772;19.670;2024-01-15T05:36:23;96628.84;;;-1.61
22269;BMP280;11303;50.772;19.670;2024-01-15T05:38:25;96620.44;;;-1.62
22269;BMP280;11303;50.772;19.670;2024-01-15T05:40:26;96622.25;;;-1.62
22269;BMP280;11303;50.772;19.670;2024-01-15T05:42:28;96617.16;;;-1.62
22269;BMP280;11303;50.772;19.670;2024-01-15T05:44:32;96616.41;;;-1.63
22269;BMP280;11303;50.772;19.670;2024-01-15T05:46:33;96613.09;;;-1.63
22269;BMP280;11303;50.772;19.670;2024-01-15T05:48:35;96614.16;;;-1.64
22269;BMP280;11303;50.772;19.670;2024-01-15T05:50:37;96605.44;;;-1.63
22269;BMP280;11303;50.772;19.670;2024-01-15T05:52:39;96619.38;;;-1.61
22269;BMP280;11303;50.772;19.670;2024-01-15T05:54:40;96609.94;;;-1.60
22269;BMP280;11303;50.772;19.670;2024-01-15T05:56:42;96621.63;;;-1.59
22269;BMP280;11303;50.772;19.670;2024-01-15T05:58:44;96610.09;;;-1.56
22269;BMP280;11303;50.772;19.670;2024-01-15T06:00:45;96616.66;;;-1.55
22269;BMP280;11303;50.772;19.670;2024-01-15T06:02:47;96612.34;;;-1.55
22269;BMP280;11303;50.772;19.670;2024-01-15T06:04:49;96607.25;;;-1.55
22269;BMP280;11303;50.772;19.670;2024-01-15T06:06:50;96614.13;;;-1.55
22269;BMP280;11303;50.772;19.670;2024-01-15T06:08:52;96616.38;;;-1.54
22269;BMP280;11303;50.772;19.670;2024-01-15T06:10:56;96610.84;;;-1.56
22269;BMP280;11303;50.772;19.670;2024-01-15T06:13:02;96609.94;;;-1.60
22269;BMP280;11303;50.772;19.670;2024-01-15T06:15:04;96616.84;;;-1.61
22269;BMP280;11303;50.772;19.670;2024-01-15T06:17:06;96610.72;;;-1.59
22269;BMP280;11303;50.772;19.670;2024-01-15T06:19:07;96613.38;;;-1.56
22269;BMP280;11303;50.772;19.670;2024-01-15T06:21:09;96615.31;;;-1.53
22269;BMP280;11303;50.772;19.670;2024-01-15T06:23:11;96611.13;;;-1.49
22269;BMP280;11303;50.772;19.670;2024-01-15T06:25:13;96618.91;;;-1.45
22269;BMP280;11303;50.772;19.670;2024-01-15T06:27:15;96610.22;;;-1.44
22269;BMP280;11303;50.772;19.670;2024-01-15T06:29:16;96611.25;;;-1.45
22269;BMP280;11303;50.772;19.670;2024-01-15T06:31:18;96616.66;;;-1.47
22269;BMP280;11303;50.772;19.670;2024-01-15T06:33:20;96615.75;;;-1.51
22269;BMP280;11303;50.772;19.670;2024-01-15T06:35:21;96617.13;;;-1.53
22269;BMP280;11303;50.772;19.670;2024-01-15T06:37:24;96621.91;;;-1.52
22269;BMP280;11303;50.772;19.670;2024-01-15T06:39:25;96621.91;;;-1.52
22269;BMP280;11303;50.772;19.670;2024-01-15T06:41:27;96614.72;;;-1.50
22269;BMP280;11303;50.772;19.670;2024-01-15T06:43:29;96631.63;;;-1.45
22269;BMP280;11303;50.772;19.670;2024-01-15T06:45:30;96629.81;;;-1.45
22269;BMP280;11303;50.772;19.670;2024-01-15T06:47:32;96614.09;;;-1.47
22269;BMP280;11303;50.772;19.670;2024-01-15T06:49:34;96610.97;;;-1.52
22269;BMP280;11303;50.772;19.670;2024-01-15T06:51:36;96623.44;;;-1.59
22269;BMP280;11303;50.772;19.670;2024-01-15T06:53:37;96627.19;;;-1.66
22269;BMP280;11303;50.772;19.670;2024-01-15T06:55:39;96615.50;;;-1.67
22269;BMP280;11303;50.772;19.670;2024-01-15T06:57:41;96625.81;;;-1.63
22269;BMP280;11303;50.772;19.670;2024-01-15T06:59:42;96615.94;;;-1.56
22269;BMP280;11303;50.772;19.670;2024-01-15T07:01:44;96619.81;;;-1.50
22269;BMP280;11303;50.772;19.670;2024-01-15T07:03:46;96619.63;;;-1.45
22269;BMP280;11303;50.772;19.670;2024-01-15T07:05:47;96618.72;;;-1.40
22269;BMP280;11303;50.772;19.670;2024-01-15T07:07:49;96623.38;;;-1.33
22269;BMP280;11303;50.772;19.670;2024-01-15T07:09:50;96634.13;;;-1.19
22269;BMP280;11303;50.772;19.670;2024-01-15T07:11:53;96633.28;;;-1.02
22269;BMP280;11303;50.772;19.670;2024-01-15T07:13:55;96626.75;;;-0.82
22269;BMP280;11303;50.772;19.670;2024-01-15T07:15:56;96626.75;;;-0.61
22269;BMP280;11303;50.772;19.670;2024-01-15T07:17:59;96632.19;;;-0.41
22269;BMP280;11303;50.772;19.670;2024-01-15T07:20:01;96633.06;;;-0.16
22269;BMP280;11303;50.772;19.670;2024-01-15T07:22:03;96626.06;;;-0.07
22269;BMP280;11303;50.772;19.670;2024-01-15T07:24:04;96629.81;;;-0.04
22269;BMP280;11303;50.772;19.670;2024-01-15T07:26:06;96632.06;;;-0.03
22269;BMP280;11303;50.772;19.670;2024-01-15T07:28:08;96627.16;;;-0.08
22269;BMP280;11303;50.772;19.670;2024-01-15T07:30:13;96633.50;;;-0.14
22269;BMP280;11303;50.772;19.670;2024-01-15T07:32:15;96627.66;;;-0.14
22269;BMP280;11303;50.772;19.670;2024-01-15T07:34:17;96632.88;;;-0.11
22269;BMP280;11303;50.772;19.670;2024-01-15T07:36:19;96639.91;;;-0.08
22269;BMP280;11303;50.772;19.670;2024-01-15T07:38:21;96650.56;;;-0.06
22269;BMP280;11303;50.772;19.670;2024-01-15T07:40:24;96647.38;;;-0.03
22269;BMP280;11303;50.772;19.670;2024-01-15T07:42:26;96650.69;;;-0.02
22269;BMP280;11303;50.772;19.670;2024-01-15T07:44:27;96652.50;;;-0.03
22269;BMP280;11303;50.772;19.670;2024-01-15T07:46:29;96648.44;;;-0.04
22269;BMP280;11303;50.772;19.670;2024-01-15T07:48:30;96644.72;;;-0.06
22269;BMP280;11303;50.772;19.670;2024-01-15T07:50:32;96662.75;;;-0.11
22269;BMP280;11303;50.772;19.670;2024-01-15T07:52:34;96662.22;;;-0.17
22269;BMP280;11303;50.772;19.670;2024-01-15T07:54:35;96676.84;;;-0.26
22269;BMP280;11303;50.772;19.670;2024-01-15T07:57:03;96675.06;;;-0.34
22269;BMP280;11303;50.772;19.670;2024-01-15T07:59:05;96677.50;;;-0.38
22269;BMP280;11303;50.772;19.670;2024-01-15T08:01:06;96673.75;;;-0.41
22269;BMP280;11303;50.772;19.670;2024-01-15T08:03:08;96674.94;;;-0.38
22269;BMP280;11303;50.772;19.670;2024-01-15T08:05:10;96674.31;;;-0.35
22269;BMP280;11303;50.772;19.670;2024-01-15T08:07:12;96663.94;;;-0.30
22269;BMP280;11303;50.772;19.670;2024-01-15T08:09:14;96666.75;;;-0.23
22269;BMP280;11303;50.772;19.670;2024-01-15T08:11:17;96669.25;;;-0.14
22269;BMP280;11303;50.772;19.670;2024-01-15T08:13:18;96672.59;;;-0.01
22269;BMP280;11303;50.772;19.670;2024-01-15T08:15:21;96678.72;;;0.07
22269;BMP280;11303;50.772;19.670;2024-01-15T08:17:23;96670.53;;;0.13
22269;BMP280;11303;50.772;19.670;2024-01-15T08:19:29;96675.31;;;0.15
22269;BMP280;11303;50.772;19.670;2024-01-15T08:21:31;96678.63;;;0.15
22269;BMP280;11303;50.772;19.670;2024-01-15T08:23:34;96674.44;;;0.11
22269;BMP280;11303;50.772;19.670;2024-01-15T08:25:36;96688.59;;;0.08
22269;BMP280;11303;50.772;19.670;2024-01-15T08:27:37;96682.94;;;0.03
22269;BMP280;11303;50.772;19.670;2024-01-15T08:29:39;96689.75;;;-0.02
22269;BMP280;11303;50.772;19.670;2024-01-15T08:31:40;96682.09;;;-0.02
22269;BMP280;11303;50.772;19.670;2024-01-15T08:33:42;96686.13;;;-0.01
22269;BMP280;11303;50.772;19.670;2024-01-15T08:35:44;96695.28;;;0.01
22269;BMP280;11303;50.772;19.670;2024-01-15T08:37:46;96691.34;;;0.03
22269;BMP280;11303;50.772;19.670;2024-01-15T08:39:48;96706.53;;;-0.01
22269;BMP280;11303;50.772;19.670;2024-01-15T08:41:52;96693.88;;;-0.09
22269;BMP280;11303;50.772;19.670;2024-01-15T08:43:54;96693.09;;;-0.10
22269;BMP280;11303;50.772;19.670;2024-01-15T08:45:55;96694.19;;;-0.11
22269;BMP280;11303;50.772;19.670;2024-01-15T08:47:58;96698.03;;;-0.05
22269;BMP280;11303;50.772;19.670;2024-01-15T08:49:59;96700.28;;;-0.03
22269;BMP280;11303;50.772;19.670;2024-01-15T08:52:01;96696.13;;;0.05
22269;BMP280;11303;50.772;19.670;2024-01-15T08:54:03;96694.03;;;0.07
22269;BMP280;11303;50.772;19.670;2024-01-15T08:56:05;96693.50;;;0.13
22269;BMP280;11303;50.772;19.670;2024-01-15T08:58:07;96699.19;;;0.19
22269;BMP280;11303;50.772;19.670;2024-01-15T09:00:09;96694.31;;;0.26
22269;BMP280;11303;50.772;19.670;2024-01-15T09:02:11;96698.16;;;0.45
22269;BMP280;11303;50.772;19.670;2024-01-15T09:04:12;96692.59;;;0.64
22269;BMP280;11303;50.772;19.670;2024-01-15T09:06:14;96699.22;;;0.89
22269;BMP280;11303;50.772;19.670;2024-01-15T09:08:16;96683.56;;;1.28
22269;BMP280;11303;50.772;19.670;2024-01-15T09:10:18;96690.44;;;1.65
22269;BMP280;11303;50.772;19.670;2024-01-15T09:12:20;96702.41;;;1.89
22269;BMP280;11303;50.772;19.670;2024-01-15T09:14:23;96697.22;;;1.73
22269;BMP280;11303;50.772;19.670;2024-01-15T09:16:37;96689.69;;;1.39
22269;BMP280;11303;50.772;19.670;2024-01-15T09:18:39;96694.44;;;1.13
22269;BMP280;11303;50.772;19.670;2024-01-15T09:20:40;96688.03;;;1.06
22269;BMP280;11303;50.772;19.670;2024-01-15T09:22:42;96693.38;;;1.01
22269;BMP280;11303;50.772;19.670;2024-01-15T09:24:45;96690.59;;;0.94
22269;BMP280;11303;50.772;19.670;2024-01-15T09:26:46;96694.88;;;1.02
22269;BMP280;11303;50.772;19.670;2024-01-15T09:28:48;96699.03;;;1.19
22269;BMP280;11303;50.772;19.670;2024-01-15T09:30:49;96693.72;;;1.65
22269;BMP280;11303;50.772;19.670;2024-01-15T09:32:52;96676.03;;;2.16
22269;BMP280;11303;50.772;19.670;2024-01-15T09:34:53;96677.91;;;2.64
22269;BMP280;11303;50.772;19.670;2024-01-15T09:36:55;96691.63;;;2.87
22269;BMP280;11303;50.772;19.670;2024-01-15T09:38:56;96679.72;;;2.95
22269;BMP280;11303;50.772;19.670;2024-01-15T09:40:59;96666.50;;;3.13
22269;BMP280;11303;50.772;19.670;2024-01-15T09:43:01;96666.81;;;3.11
22269;BMP280;11303;50.772;19.670;2024-01-15T09:45:04;96656.38;;;2.84
22269;BMP280;11303;50.772;19.670;2024-01-15T09:47:06;96656.66;;;2.63
22269;BMP280;11303;50.772;19.670;2024-01-15T09:49:08;96663.19;;;2.61
22269;BMP280;11303;50.772;19.670;2024-01-15T09:51:10;96662.09;;;2.78
22269;BMP280;11303;50.772;19.670;2024-01-15T09:53:14;96663.09;;;2.73
22269;BMP280;11303;50.772;19.670;2024-01-15T09:55:17;96666.66;;;2.52
22269;BMP280;11303;50.772;19.670;2024-01-15T09:57:19;96661.91;;;2.23
22269;BMP280;11303;50.772;19.670;2024-01-15T09:59:22;96661.69;;;1.99
22269;BMP280;11303;50.772;19.670;2024-01-15T10:01:25;96654.66;;;1.96
22269;BMP280;11303;50.772;19.670;2024-01-15T10:03:26;96655.56;;;1.88
22269;BMP280;11303;50.772;19.670;2024-01-15T10:05:28;96655.97;;;1.90
22269;BMP280;11303;50.772;19.670;2024-01-15T10:07:30;96658.38;;;1.83
22269;BMP280;11303;50.772;19.670;2024-01-15T10:09:32;96669.91;;;1.77
22269;BMP280;11303;50.772;19.670;2024-01-15T10:11:34;96674.09;;;1.69
22269;BMP280;11303;50.772;19.670;2024-01-15T10:13:36;96665.16;;;1.63
22269;BMP280;11303;50.772;19.670;2024-01-15T10:15:39;96670.25;;;1.63
22269;BMP280;11303;50.772;19.670;2024-01-15T10:17:41;96658.09;;;1.72
22269;BMP280;11303;50.772;19.670;2024-01-15T10:19:45;96667.50;;;1.56
22269;BMP280;11303;50.772;19.670;2024-01-15T10:21:50;96658.53;;;1.62
22269;BMP280;11303;50.772;19.670;2024-01-15T10:23:52;96650.19;;;1.65
22269;BMP280;11303;50.772;19.670;2024-01-15T10:25:53;96650.19;;;1.65
22269;BMP280;11303;50.772;19.670;2024-01-15T10:28:03;96643.78;;;1.71
22269;BMP280;11303;50.772;19.670;2024-01-15T10:30:04;96641.88;;;1.68
22269;BMP280;11303;50.772;19.670;2024-01-15T10:32:07;96650.53;;;1.63
22269;BMP280;11303;50.772;19.670;2024-01-15T10:34:12;96632.50;;;1.60
22269;BMP280;11303;50.772;19.670;2024-01-15T10:36:17;96646.34;;;1.71
22269;BMP280;11303;50.772;19.670;2024-01-15T10:38:20;96645.41;;;1.63
22269;BMP280;11303;50.772;19.670;2024-01-15T10:40:23;96634.41;;;1.63
22269;BMP280;11303;50.772;19.670;2024-01-15T10:42:25;96646.59;;;1.54
22269;BMP280;11303;50.772;19.670;2024-01-15T10:44:26;96653.34;;;1.46
22269;BMP280;11303;50.772;19.670;2024-01-15T10:46:28;96651.75;;;1.41
22269;BMP280;11303;50.772;19.670;2024-01-15T10:48:30;96663.91;;;1.44
22269;BMP280;11303;50.772;19.670;2024-01-15T10:50:33;96658.13;;;1.48
22269;BMP280;11303;50.772;19.670;2024-01-15T10:52:36;96650.97;;;1.53
22269;BMP280;11303;50.772;19.670;2024-01-15T10:54:38;96631.06;;;1.75
22269;BMP280;11303;50.772;19.670;2024-01-15T10:56:41;96645.94;;;1.69
22269;BMP280;11303;50.772;19.670;2024-01-15T10:58:43;96651.06;;;1.57
22269;BMP280;11303;50.772;19.670;2024-01-15T11:00:45;96646.81;;;1.49
22269;BMP280;11303;50.772;19.670;2024-01-15T11:02:47;96640.97;;;1.36
22269;BMP280;11303;50.772;19.670;2024-01-15T11:04:49;96652.22;;;1.31
22269;BMP280;11303;50.772;19.670;2024-01-15T11:06:53;96665.00;;;1.31
22269;BMP280;11303;50.772;19.670;2024-01-15T11:08:56;96655.69;;;1.39
22269;BMP280;11303;50.772;19.670;2024-01-15T11:10:58;96655.91;;;1.46
22269;BMP280;11303;50.772;19.670;2024-01-15T11:13:00;96661.13;;;1.50
22269;BMP280;11303;50.772;19.670;2024-01-15T11:15:03;96658.41;;;1.71
22269;BMP280;11303;50.772;19.670;2024-01-15T11:17:11;96661.03;;;1.87
22269;BMP280;11303;50.772;19.670;2024-01-15T11:19:14;96647.50;;;1.74
22269;BMP280;11303;50.772;19.670;2024-01-15T11:23:44;96657.84;;;1.37
22269;BMP280;11303;50.772;19.670;2024-01-15T11:25:51;96665.97;;;1.14
22269;BMP280;11303;50.772;19.670;2024-01-15T11:27:53;96660.53;;;0.91
22269;BMP280;11303;50.772;19.670;2024-01-15T11:30:03;96650.28;;;0.79
22269;BMP280;11303;50.772;19.670;2024-01-15T11:34:09;96651.78;;;0.67
22269;BMP280;11303;50.772;19.670;2024-01-15T11:36:11;96645.47;;;0.65
22269;BMP280;11303;50.772;19.670;2024-01-15T11:38:26;96645.59;;;0.56
22269;BMP280;11303;50.772;19.670;2024-01-15T11:42:37;96649.53;;;0.66